Airfield :
LOGIN :

Register | Disclaimer

   EN    FR    IT 

 










Legend :    VFR   Marginal VFR   IFR   Intensive IFR   Very Intensive IFR
Visi :
Ceiling :
>= 8 km
>= 3000ft
5 to 8 km
1000 to 3000 ft
1500m to 5 km
500 to 1000 ft
800 to 1500m
200 to 500 ft
< 800m
< 200 ft
Symbols :   Thunderstorms  Fog  Heavy snow  Heavy precipitations  Wind > 20 kt
SIGMETs :     Misc.  Thunderstorms  Icing  Turbulence  Mountain Waves  Volcanic Ashes







- Airport Elevation : 359 ft
- IATA code : BVA
- Download approach charts


LFOB - Beauvais

CURRENT METAR :
  • 201300Z AUTO 34010KT 310V020 9999 BKN033 BKN056 BKN072 18/11 Q1011 NOSIG

EXPIRED METARs :
  • 201230Z AUTO 33011KT 9999 SCT033 SCT230 19/11 Q1011 NOSIG
  • 201200Z AUTO 33011KT 280V040 9999 FEW030 18/11 Q1011 NOSIG
  • 201130Z AUTO 36011KT 330V080 9999 BKN028 18/11 Q1011 NOSIG
  • 201100Z AUTO 32009KT 280V020 9999 BKN026 17/11 Q1011 NOSIG
  • 201030Z AUTO 30011KT 270V340 9999 BKN024 16/11 Q1011 NOSIG

TAF TAF LFOB
Valid from the 20 at 12:00 until the 21 at 12:00 UTC


201100Z 2012/2112 34008KT 9999 BKN025
BECMG 2021/2024 4000 BR BKN008
BECMG 2109/2112 9999 NSW BKN020
ATIS : +33 3 44 11 49 28
No reported NOTAMs for that airfield.



MET'MAP, your aeronautical weather chart ! - Copyright ORBIFLY December 2007 - Disclaimer

ORBIFLY MET'MAP TEAM :

Programming & Development : Alexandra Zaïnal
Concept & Development : Baudouin d'Aumeries
Co-Development & Prog : Marc-Olivier Méhu
Technical & hardware support : Manuel Goepfert

Contact : metmap@orbifly.com




SOURCES & CREDITS :

   NOAA